Spokane, Washington
Current Conditions -  °F | °C
As of 10:53 AM on Monday 20 Oct 2014 (Local Time) from KSFF Reporting Station
Clear Clear  
Wind Chill: 61°   Ceiling: Unl
Heat Index: 61°   Visibility: 10mi
Dew Point: 47°   Wind: 8mph
Humidity: 60%   Direction: 80°E
Pressure: 29.78"   Gusts: NA
Location:  47.66°N, 117.41°W
Report Text: KSFF 201753Z 08007KT 10SM CLR 16/08 A2978 RMK AO2 SLP080 T01610083 10161 20072 50003
Loading
Personal Weather Stations






























Interactive Weather Map
Tropical Storm Tracking
New forecast layout! Learn more

10-Day Weather Forecast

Advertisements
Track Severe Weather on mobile